Time;durP1;ratioP1;P1;durP2;ratioP2;P2;SDS_P1;SDS_P2;PMS_P1;PMS_P2;Temp;Humidity;BMP_temperature;BMP_pressure;BME280_temperature;BME280_humidity;BME280_pressure;Samples;Min_cycle;Max_cycle;Signal;HPM_P1;HPM_P2
2021/09/22 00:01:59;;;;;;;20.73;18.60;;;8.20;89.90;;;7.41;90.55;99131.75;5055511;28;20878;-70
2021/09/22 00:04:26;;;;;;;20.20;16.40;;;8.30;89.30;;;7.45;88.74;99125.03;5049624;28;21225;-70
2021/09/22 00:06:53;;;;;;;22.10;17.40;;;8.50;87.20;;;7.41;89.45;99147.91;5048028;28;20543;-70
2021/09/22 00:09:20;;;;;;;19.67;17.87;;;8.50;87.10;;;7.25;89.91;99157.63;5050089;28;20479;-70
2021/09/22 00:11:47;;;;;;;19.50;17.50;;;8.40;86.80;;;7.19;90.46;99155.59;5063014;28;20862;-69
2021/09/22 00:14:14;;;;;;;24.93;19.67;;;8.40;87.00;;;7.23;89.48;99148.88;5047910;28;20550;-70
2021/09/22 00:16:41;;;;;;;19.80;16.87;;;8.40;86.80;;;7.17;89.64;99144.16;5049227;28;21437;-70
2021/09/22 00:19:09;;;;;;;21.73;17.17;;;8.30;86.20;;;7.01;90.41;99131.56;5047777;28;20526;-71
2021/09/22 00:21:36;;;;;;;17.57;15.67;;;8.20;86.70;;;6.89;90.73;99139.06;5052367;28;20448;-71
2021/09/22 00:24:05;;;;;;;19.87;17.77;;;8.10;87.70;;;6.91;90.77;99147.81;5046616;28;20493;-70
2021/09/22 00:26:32;;;;;;;19.07;17.17;;;8.10;87.50;;;6.73;91.64;99140.69;5049934;28;20479;-70
2021/09/22 00:28:59;;;;;;;20.47;16.97;;;8.00;88.30;;;6.63;92.61;99151.59;5048333;28;20965;-70
2021/09/22 00:31:27;;;;;;;20.13;17.93;;;7.90;89.50;;;6.50;92.39;99149.34;5041868;28;20550;-70
2021/09/22 00:33:54;;;;;;;20.50;17.80;;;7.80;89.80;;;6.41;92.58;99144.94;5054217;28;20957;-69
2021/09/22 00:36:23;;;;;;;19.03;17.13;;;7.70;90.00;;;6.23;94.35;99151.25;5049405;28;20464;-70
2021/09/22 00:38:50;;;;;;;19.17;17.10;;;7.50;90.80;;;6.21;94.61;99153.25;5048799;28;20488;-70
2021/09/22 00:41:17;;;;;;;18.40;16.50;;;7.40;91.60;;;6.22;93.88;99148.72;5044013;28;20460;-70
2021/09/22 00:43:44;;;;;;;19.57;16.63;;;7.40;91.30;;;6.33;93.41;99147.59;5052852;28;20473;-70
2021/09/22 00:46:11;;;;;;;17.47;15.70;;;7.40;91.70;;;6.42;93.27;99143.94;5059676;28;20545;-70
2021/09/22 00:48:38;;;;;;;20.23;16.70;;;7.50;91.30;;;6.29;93.31;99143.53;5063763;28;20938;-70
2021/09/22 00:51:07;;;;;;;18.23;16.33;;;7.50;91.50;;;6.28;93.44;99142.72;5067049;28;20492;-70
2021/09/22 00:53:38;;;;;;;19.40;17.50;;;7.40;91.50;;;6.17;93.77;99146.53;5062837;28;20457;-70
2021/09/22 00:56:06;;;;;;;18.60;16.70;;;7.40;91.60;;;6.19;94.00;99147.19;5059160;28;20464;-70
2021/09/22 00:58:34;;;;;;;18.80;16.80;;;7.40;91.80;;;6.35;93.32;99159.03;5060448;28;20465;-70
2021/09/22 01:01:01;;;;;;;19.87;17.77;;;7.50;91.70;;;6.24;94.64;99147.56;5075890;28;21057;-70
2021/09/22 01:03:28;;;;;;;19.37;16.90;;;7.50;91.80;;;6.20;94.78;99154.25;5063308;28;20472;-71
2021/09/22 01:05:57;;;;;;;18.80;16.80;;;7.40;91.80;;;6.18;95.22;99147.34;5064729;28;20504;-70
2021/09/22 01:08:24;;;;;;;17.83;15.87;;;7.40;92.20;;;6.11;95.47;99146.31;5066238;28;20471;-70
2021/09/22 01:10:53;;;;;;;18.23;16.30;;;7.30;92.60;;;6.23;95.05;99135.13;5066929;28;20491;-69
2021/09/22 01:13:20;;;;;;;19.20;16.70;;;7.40;93.00;;;6.12;95.09;99126.53;5062210;28;20473;-71
2021/09/22 01:15:48;;;;;;;19.13;17.20;;;7.40;92.60;;;6.13;95.56;99117.47;5067778;28;20504;-76
2021/09/22 01:18:19;;;;;;;17.83;16.03;;;7.30;93.30;;;6.08;95.82;99118.81;5055138;28;20452;-70
2021/09/22 01:20:50;;;;;;;18.00;15.70;;;7.30;92.90;;;6.02;95.28;99110.53;5068193;28;20448;-70
2021/09/22 01:23:20;;;;;;;19.87;16.87;;;7.30;93.40;;;6.03;96.00;99114.91;5069253;28;20485;-70
2021/09/22 01:25:50;;;;;;;18.23;15.90;;;7.20;93.90;;;6.01;95.88;99109.69;5068541;28;20556;-70
2021/09/22 01:28:21;;;;;;;18.47;16.50;;;7.20;93.90;;;5.91;96.52;99104.41;5060564;28;20469;-69
2021/09/22 01:30:48;;;;;;;19.60;16.60;;;7.10;94.20;;;5.91;96.19;99108.91;5070448;28;20456;-70
2021/09/22 01:33:18;;;;;;;19.13;17.10;;;7.10;94.10;;;5.87;96.25;99108.41;5068079;28;20551;-71
2021/09/22 01:35:48;;;;;;;18.97;17.07;;;7.10;94.20;;;5.95;96.21;99111.13;5059739;28;20589;-70
2021/09/22 01:38:20;;;;;;;19.13;17.03;;;7.10;94.70;;;5.99;95.89;99108.97;5064912;28;20470;-70
2021/09/22 01:41:01;;;;;;;20.47;17.03;;;7.20;94.10;;;5.90;96.23;99105.41;5064401;28;20537;-69
2021/09/22 01:43:30;;;;;;;16.47;14.87;;;7.10;94.40;;;5.87;96.61;99094.16;5062318;28;20533;-69
2021/09/22 01:45:58;;;;;;;18.53;16.57;;;7.10;94.70;;;5.86;97.27;99101.38;5060558;28;20479;-69
2021/09/22 01:48:26;;;;;;;18.17;16.47;;;7.00;95.00;;;5.98;96.20;99106.44;5057720;28;20551;-70
2021/09/22 01:50:53;;;;;;;17.17;15.37;;;7.10;94.60;;;5.87;96.36;99108.41;5060208;28;20456;-70
2021/09/22 01:53:22;;;;;;;20.30;17.10;;;7.10;94.20;;;5.82;97.45;99094.63;5059293;28;20960;-69
2021/09/22 01:55:49;;;;;;;18.83;16.93;;;7.00;94.80;;;5.79;96.61;99095.81;5058390;28;20907;-69
2021/09/22 01:58:16;;;;;;;17.93;16.13;;;7.00;95.00;;;5.76;97.19;99097.94;5058321;28;20514;-70
2021/09/22 02:00:43;;;;;;;18.37;16.50;;;7.00;95.30;;;5.71;97.70;99094.91;5056525;28;20461;-69
2021/09/22 02:03:11;;;;;;;20.10;18.10;;;6.90;95.60;;;5.64;97.96;99095.50;5058990;28;20472;-69
2021/09/22 02:05:38;;;;;;;17.77;15.90;;;6.80;96.50;;;5.77;98.07;99107.66;5058638;28;20638;-70
2021/09/22 02:08:05;;;;;;;20.47;17.90;;;6.90;97.10;;;5.67;97.88;99103.25;5057882;28;20498;-69
2021/09/22 02:10:34;;;;;;;19.40;17.10;;;6.80;96.60;;;5.66;98.23;99104.25;5057180;28;20465;-70
2021/09/22 02:13:01;;;;;;;18.87;15.90;;;6.80;97.20;;;5.72;98.61;99104.63;5076005;28;20457;-70
2021/09/22 02:15:28;;;;;;;18.83;15.87;;;6.80;98.10;;;5.76;98.33;99100.63;5057167;28;20615;-69
2021/09/22 02:17:56;;;;;;;18.60;16.60;;;6.90;96.90;;;5.79;97.57;99097.63;5071829;28;20521;-69
2021/09/22 02:20:23;;;;;;;19.43;16.73;;;6.90;96.50;;;5.88;97.69;99096.69;5058560;28;20460;-70
2021/09/22 02:22:51;;;;;;;20.13;17.47;;;7.00;96.50;;;5.89;96.61;99093.00;5063597;28;20551;-69
2021/09/22 02:25:18;;;;;;;20.20;16.13;;;7.00;95.50;;;6.12;96.00;99089.78;5058663;28;20480;-70
2021/09/22 02:27:47;;;;;;;17.80;15.93;;;7.20;94.40;;;6.12;96.04;99092.47;5060182;28;20514;-70
2021/09/22 02:30:19;;;;;;;19.80;15.93;;;7.30;93.50;;;6.17;94.91;99098.22;5060576;28;20456;-68
2021/09/22 02:32:46;;;;;;;17.53;15.73;;;7.40;92.90;;;6.12;95.07;99100.53;5066605;28;20536;-70
2021/09/22 02:35:14;;;;;;;19.70;17.50;;;7.40;92.60;;;6.13;95.13;99096.84;5060961;28;20511;-70
2021/09/22 02:37:41;;;;;;;18.00;16.10;;;7.40;92.40;;;6.11;95.18;99098.84;5073237;28;20461;-69
2021/09/22 02:40:13;;;;;;;18.90;15.80;;;7.30;92.30;;;6.05;94.27;99105.69;5061849;28;20511;-69
2021/09/22 02:42:42;;;;;;;17.97;16.10;;;7.30;92.00;;;5.96;94.51;99091.34;5060225;28;20453;-70
2021/09/22 02:45:13;;;;;;;18.83;16.37;;;7.30;92.10;;;5.86;95.05;99098.69;5061069;28;20468;-69
2021/09/22 02:47:40;;;;;;;19.53;17.00;;;7.20;92.20;;;5.81;95.21;99098.31;5061970;28;20960;-69
2021/09/22 02:50:09;;;;;;;19.17;17.07;;;7.10;92.30;;;5.64;95.43;99103.56;5059793;28;20990;-69
2021/09/22 02:52:37;;;;;;;18.93;16.73;;;7.00;92.50;;;5.57;96.83;99102.53;5062186;28;20510;-69
2021/09/22 02:55:05;;;;;;;18.50;15.40;;;6.90;93.20;;;5.63;95.70;99107.25;5060286;28;21017;-70
2021/09/22 02:57:32;;;;;;;19.80;15.50;;;6.90;92.90;;;5.56;96.45;99114.25;5059693;28;20551;-70
2021/09/22 02:59:59;;;;;;;18.30;16.30;;;6.90;93.10;;;5.57;96.47;99113.25;5061082;28;20540;-69
2021/09/22 03:02:27;;;;;;;21.30;17.00;;;6.90;93.10;;;5.66;94.93;99123.00;5061247;28;21020;-70
2021/09/22 03:04:54;;;;;;;19.40;17.07;;;6.90;92.60;;;5.72;95.73;99123.41;5059506;28;22396;-69
2021/09/22 03:07:21;;;;;;;21.83;16.93;;;7.00;92.60;;;5.77;95.21;99113.91;5059040;28;21075;-70
2021/09/22 03:09:48;;;;;;;19.00;16.93;;;7.00;92.60;;;5.93;94.97;99112.31;5059451;28;20559;-70
2021/09/22 03:12:15;;;;;;;19.03;15.60;;;7.10;92.20;;;5.90;93.58;99116.16;5061607;28;20464;-70
2021/09/22 03:14:42;;;;;;;20.53;16.70;;;7.20;91.20;;;6.21;92.68;99118.34;5060209;28;20552;-69
2021/09/22 03:17:09;;;;;;;20.43;15.27;;;7.40;90.50;;;6.21;91.44;99115.66;5059633;28;20492;-71
2021/09/22 03:19:37;;;;;;;17.53;15.73;;;7.40;89.30;;;6.14;92.16;99120.00;5059510;28;20964;-70
2021/09/22 03:22:05;;;;;;;18.80;16.43;;;7.50;88.80;;;6.32;90.84;99127.13;5062586;28;20904;-69
2021/09/22 03:24:32;;;;;;;17.17;15.47;;;7.60;87.50;;;6.44;90.05;99119.63;5059132;28;20952;-70
2021/09/22 03:26:59;;;;;;;17.00;15.07;;;7.60;87.30;;;6.43;90.31;99117.94;5061340;28;20449;-70
2021/09/22 03:29:26;;;;;;;17.47;15.47;;;7.70;86.30;;;6.50;90.80;99117.13;5062889;28;20514;-70
2021/09/22 03:31:53;;;;;;;17.00;15.27;;;7.70;87.30;;;6.39;90.34;99112.06;5060312;28;21021;-71
2021/09/22 03:34:20;;;;;;;17.20;15.03;;;7.70;86.20;;;6.50;89.80;99114.44;5058575;28;20480;-71
2021/09/22 03:36:48;;;;;;;19.43;16.00;;;7.70;86.60;;;6.72;89.05;99108.66;5057512;28;20928;-70
2021/09/22 03:39:15;;;;;;;18.50;15.23;;;7.80;85.60;;;6.68;89.13;99110.81;5060323;28;20473;-70
2021/09/22 03:41:42;;;;;;;18.30;15.40;;;7.90;85.70;;;6.68;89.93;99115.34;5060136;28;20515;-70
2021/09/22 03:44:09;;;;;;;17.20;15.50;;;7.90;85.80;;;6.85;88.66;99116.22;5058354;28;20523;-70
2021/09/22 03:46:36;;;;;;;16.87;14.40;;;8.00;84.70;;;6.81;89.18;99107.66;5064216;28;20456;-70
2021/09/22 03:49:03;;;;;;;16.27;14.60;;;8.00;84.80;;;6.90;87.69;99106.66;5059745;28;20499;-71
2021/09/22 03:51:30;;;;;;;21.20;16.10;;;8.10;83.90;;;6.88;87.46;99102.47;5061949;28;20469;-70
2021/09/22 03:53:58;;;;;;;17.10;14.70;;;8.10;83.70;;;6.78;88.54;99105.28;5056648;28;21049;-71
2021/09/22 03:56:25;;;;;;;17.47;15.43;;;8.00;84.10;;;6.79;88.72;99099.78;5059979;28;20465;-70
2021/09/22 03:58:52;;;;;;;18.03;15.70;;;8.00;84.90;;;6.87;87.91;99093.56;5060114;28;20563;-69
2021/09/22 04:01:19;;;;;;;18.33;14.87;;;8.10;84.10;;;7.04;87.43;99099.78;5059568;28;20453;-70
2021/09/22 04:03:47;;;;;;;16.60;15.00;;;8.20;83.90;;;7.02;86.51;99101.81;5060008;28;20476;-69
2021/09/22 04:06:14;;;;;;;15.83;14.13;;;8.20;82.80;;;7.20;85.67;99098.13;5063514;28;20448;-70
2021/09/22 04:08:41;;;;;;;16.07;14.47;;;8.30;82.20;;;7.11;85.54;99089.22;5060336;28;20467;-69
2021/09/22 04:11:09;;;;;;;17.00;15.40;;;8.30;81.40;;;7.09;85.75;99091.25;5059746;28;20454;-71
2021/09/22 04:13:37;;;;;;;18.40;15.00;;;8.30;81.70;;;7.11;86.12;99099.16;5061383;28;20486;-70
2021/09/22 04:16:05;;;;;;;19.83;15.53;;;8.40;81.80;;;7.31;84.89;99089.75;5059339;28;20464;-71
2021/09/22 04:18:31;;;;;;;17.53;15.73;;;8.40;81.30;;;7.09;85.21;99108.22;5062241;28;20514;-72
2021/09/22 04:20:59;;;;;;;16.50;14.77;;;8.40;80.40;;;6.85;86.00;99100.97;5063424;28;20449;-70
2021/09/22 04:23:26;;;;;;;16.90;15.10;;;8.20;80.70;;;6.96;86.30;99102.50;5064312;28;20588;-69
2021/09/22 04:25:53;;;;;;;18.07;16.10;;;8.20;81.50;;;7.09;85.64;99112.75;5061596;28;20527;-70
2021/09/22 04:28:21;;;;;;;16.93;15.23;;;8.30;81.20;;;7.16;85.69;99111.09;5064906;28;20552;-69
2021/09/22 04:30:49;;;;;;;17.23;15.43;;;8.40;80.70;;;7.10;85.65;99111.72;5058508;28;20506;-69
2021/09/22 04:33:16;;;;;;;15.73;14.07;;;8.40;80.50;;;7.09;85.74;99112.75;5061114;28;20475;-70
2021/09/22 04:35:43;;;;;;;15.97;14.33;;;8.30;80.80;;;7.23;84.82;99103.19;5060333;28;20538;-70
2021/09/22 04:38:10;;;;;;;17.73;15.30;;;8.40;80.30;;;7.29;84.79;99107.06;5060322;28;20889;-69
2021/09/22 04:40:37;;;;;;;20.47;14.30;;;8.40;80.30;;;7.19;84.39;99091.06;5062607;28;20539;-70
2021/09/22 04:43:04;;;;;;;17.37;15.43;;;8.40;79.70;;;7.37;84.00;99099.84;5057447;28;20534;-71
2021/09/22 04:45:32;;;;;;;18.30;14.30;;;8.50;80.00;;;7.17;84.76;99109.22;5065543;28;20568;-70
2021/09/22 04:48:00;;;;;;;17.67;15.80;;;8.40;79.50;;;7.28;84.13;99106.22;5056982;28;20464;-70
2021/09/22 04:50:29;;;;;;;16.40;14.70;;;8.40;79.70;;;7.14;84.21;99109.56;5059136;28;20436;-71
2021/09/22 04:52:56;;;;;;;16.60;14.70;;;8.40;79.30;;;7.19;84.27;99113.44;5058079;28;20444;-71
2021/09/22 04:55:24;;;;;;;16.30;14.70;;;8.40;79.00;;;7.23;83.51;99103.19;5062802;28;20469;-71
2021/09/22 04:57:51;;;;;;;16.60;14.90;;;8.50;78.80;;;7.16;84.23;99107.53;5058024;28;21339;-71
2021/09/22 05:00:18;;;;;;;18.10;15.40;;;8.50;78.60;;;7.17;84.52;99115.44;5064200;28;20563;-71
2021/09/22 05:02:46;;;;;;;17.23;15.40;;;8.50;78.90;;;7.07;84.72;99104.88;5057851;28;20492;-71
2021/09/22 05:05:14;;;;;;;17.03;15.23;;;8.40;79.30;;;7.12;84.27;99090.06;5061810;28;20484;-70
2021/09/22 05:07:41;;;;;;;16.37;14.70;;;8.50;79.00;;;7.28;83.69;99105.34;5066996;28;20464;-69
2021/09/22 05:10:09;;;;;;;16.17;14.57;;;8.50;78.70;;;7.20;84.82;99108.88;5058103;28;20929;-70
2021/09/22 05:12:36;;;;;;;16.83;15.03;;;8.40;79.10;;;7.82;83.99;99118.28;5064634;28;20987;-70
2021/09/22 05:15:04;;;;;;;15.70;13.80;;;8.70;81.40;;;7.51;82.48;99116.31;5060456;28;20515;-69
2021/09/22 05:17:31;;;;;;;16.63;15.03;;;8.70;77.80;;;7.31;83.77;99118.50;5058249;28;20474;-70
2021/09/22 05:20:00;;;;;;;17.43;15.37;;;8.50;78.10;;;7.30;83.49;99123.00;5058692;28;20468;-69
2021/09/22 05:22:27;;;;;;;18.57;15.63;;;8.60;78.40;;;7.17;84.16;99118.13;5068707;28;20492;-70
2021/09/22 05:24:54;;;;;;;15.80;14.17;;;8.50;78.70;;;7.16;84.32;99119.16;5063123;28;20839;-71
2021/09/22 05:27:21;;;;;;;16.57;14.87;;;8.40;79.10;;;7.42;84.78;99111.94;5080340;28;20866;-70
2021/09/22 05:29:48;;;;;;;17.80;14.90;;;8.50;80.40;;;7.44;83.40;99117.97;5063618;28;20552;-71
2021/09/22 05:32:15;;;;;;;17.10;15.40;;;8.60;78.40;;;7.32;83.79;99125.53;5059552;28;20493;-71
2021/09/22 05:34:42;;;;;;;19.47;15.47;;;8.60;78.60;;;7.42;83.88;99122.69;5051690;28;20488;-71
2021/09/22 05:37:10;;;;;;;20.80;15.57;;;8.60;78.50;;;8.19;82.32;99124.94;5050191;28;20571;-71
2021/09/22 05:39:39;;;;;;;17.17;15.47;;;9.10;79.10;;;7.77;81.90;99120.63;5045436;28;20462;-71
2021/09/22 05:42:06;;;;;;;21.87;17.23;;;9.00;76.40;;;7.66;82.88;99127.22;5041009;28;20472;-70
2021/09/22 05:44:33;;;;;;;21.63;15.13;;;8.90;77.40;;;7.80;81.36;99125.66;5045591;28;20966;-71
2021/09/22 05:47:00;;;;;;;17.40;15.50;;;9.00;76.50;;;7.60;81.98;99128.72;5043988;28;20457;-71
2021/09/22 05:49:28;;;;;;;17.70;15.80;;;8.90;76.30;;;7.59;82.16;99135.13;5044348;28;20457;-70
2021/09/22 05:51:55;;;;;;;16.03;14.33;;;8.80;76.80;;;7.80;82.09;99128.38;5047433;28;20713;-70
2021/09/22 05:54:23;;;;;;;19.40;16.03;;;8.90;76.70;;;7.64;82.25;99122.00;5058137;28;20814;-71
2021/09/22 05:56:51;;;;;;;19.17;15.07;;;8.90;76.40;;;8.05;80.47;99122.94;5061167;28;20913;-72
2021/09/22 05:59:18;;;;;;;20.90;15.93;;;9.20;76.40;;;8.44;82.10;99127.53;5068045;28;20543;-72
2021/09/22 06:01:45;;;;;;;15.80;14.20;;;9.30;78.50;;;8.45;80.69;99114.91;5065770;28;20461;-72
2021/09/22 06:04:12;;;;;;;18.03;16.10;;;9.40;75.90;;;8.02;80.11;99128.69;5062045;28;20472;-72
2021/09/22 06:06:39;;;;;;;18.97;16.23;;;9.30;74.40;;;7.89;80.58;99130.03;5069641;28;20491;-73
2021/09/22 06:09:06;;;;;;;16.93;15.20;;;9.20;74.60;;;7.91;81.00;99130.72;5065892;28;20865;-72
2021/09/22 06:11:34;;;;;;;17.90;16.00;;;9.10;74.90;;;8.42;81.17;99128.72;5068341;28;20491;-72
2021/09/22 06:14:01;;;;;;;19.63;16.63;;;9.30;76.30;;;8.22;79.41;99131.81;5063411;28;20482;-73
2021/09/22 06:16:29;;;;;;;17.43;15.63;;;9.40;74.20;;;8.67;78.85;99121.41;5062207;28;20492;-73
2021/09/22 06:18:57;;;;;;;19.43;15.03;;;9.60;74.20;;;8.35;78.79;99123.19;5066935;28;20543;-73
2021/09/22 06:21:24;;;;;;;17.67;15.70;;;9.50;73.00;;;8.39;78.48;99129.91;5068571;28;20556;-75
2021/09/22 06:23:53;;;;;;;16.37;14.80;;;9.50;73.30;;;8.82;78.45;99124.19;5065969;28;20484;-73
2021/09/22 06:26:21;;;;;;;18.67;16.77;;;9.70;73.90;;;8.93;77.22;99129.16;5065486;28;20464;-73
2021/09/22 06:28:50;;;;;;;16.93;15.20;;;10.00;71.40;;;8.84;77.16;99132.09;5067813;28;20979;-77
2021/09/22 06:31:18;;;;;;;17.67;15.87;;;9.90;71.80;;;9.06;76.29;99141.22;5067185;28;20548;-83
2021/09/22 06:33:45;;;;;;;17.37;15.20;;;10.10;70.30;;;8.92;76.46;99129.38;5068397;28;20489;-80
2021/09/22 06:36:12;;;;;;;18.80;15.20;;;10.10;69.70;;;9.19;76.01;99135.28;5071925;28;20547;-80
2021/09/22 06:38:39;;;;;;;23.20;15.93;;;10.20;70.40;;;9.38;74.63;99128.53;5069501;28;20968;-80
2021/09/22 06:41:06;;;;;;;15.83;14.23;;;10.40;69.00;;;9.99;73.92;99119.56;5064238;28;20532;-79
2021/09/22 06:43:34;;;;;;;17.03;14.83;;;10.80;69.10;;;9.82;73.66;99127.00;5069695;28;20476;-78
2021/09/22 06:46:19;;;;;;;15.77;14.17;;;10.80;68.30;;;9.82;72.14;99108.09;5063521;28;20468;-83
2021/09/22 06:48:49;;;;;;;15.97;14.20;;;10.90;67.30;;;9.99;73.24;99118.72;5065853;28;20459;-79
2021/09/22 06:51:18;;;;;;;16.87;14.17;;;10.90;67.50;;;9.83;72.53;99119.72;5065372;28;20919;-79
2021/09/22 06:53:45;;;;;;;16.40;14.70;;;10.90;66.40;;;9.75;73.49;99117.94;5063733;28;20471;-80
2021/09/22 06:56:12;;;;;;;15.47;13.80;;;10.90;66.60;;;10.07;72.27;99121.34;5063514;28;20553;-79
2021/09/22 06:58:39;;;;;;;15.17;13.67;;;11.00;66.60;;;9.88;72.65;99128.94;5072934;28;20927;-79
2021/09/22 07:01:08;;;;;;;17.20;14.00;;;11.00;65.80;;;10.09;72.11;99130.13;5071159;28;20960;-78
2021/09/22 07:03:35;;;;;;;16.73;14.60;;;11.10;65.90;;;10.00;72.49;99133.91;5063677;28;20502;-78
2021/09/22 07:06:02;;;;;;;14.97;13.47;;;11.10;65.40;;;9.91;72.68;99127.75;5061612;28;21020;-79
2021/09/22 07:08:30;;;;;;;17.27;15.37;;;11.10;65.70;;;9.96;72.59;99130.72;5065906;28;20593;-78
2021/09/22 07:10:57;;;;;;;15.60;14.07;;;11.10;65.40;;;10.25;72.27;99144.47;5068488;28;20452;-80
2021/09/22 07:13:24;;;;;;;19.30;15.60;;;11.20;65.30;;;10.45;71.12;99131.25;5057583;28;20543;-81
2021/09/22 07:15:51;;;;;;;19.10;14.20;;;11.40;65.30;;;10.16;72.01;99131.03;5062881;28;20549;-79
2021/09/22 07:18:20;;;;;;;19.47;15.13;;;11.30;64.80;;;10.23;71.17;99130.28;5062639;28;20992;-78
2021/09/22 07:20:48;;;;;;;15.33;13.73;;;11.30;64.60;;;10.51;70.75;99129.66;5065044;28;20980;-72
2021/09/22 07:23:16;;;;;;;17.60;14.57;;;11.50;64.50;;;10.86;69.08;99124.50;5068226;28;20469;-78
2021/09/22 07:25:43;;;;;;;16.57;14.77;;;11.80;63.80;;;11.05;68.07;99126.56;5064522;28;21034;-70
2021/09/22 07:28:10;;;;;;;17.00;15.30;;;12.00;63.00;;;10.69;69.24;99124.72;5063708;28;20466;-68
2021/09/22 07:30:37;;;;;;;20.60;15.80;;;11.90;62.30;;;11.26;66.81;99133.03;5066535;28;21036;-77
2021/09/22 07:33:06;;;;;;;23.77;16.00;;;12.20;62.10;;;11.85;65.97;99130.22;5064590;28;20540;-78
2021/09/22 07:35:34;;;;;;;21.00;15.47;;;12.60;61.80;;;11.63;65.16;99127.53;5062322;28;20477;-78
2021/09/22 07:38:02;;;;;;;19.03;14.43;;;12.60;60.80;;;11.97;65.11;99130.50;5066629;28;20994;-78
2021/09/22 07:40:29;;;;;;;20.20;16.20;;;12.80;61.00;;;11.59;65.16;99108.13;5061437;28;20468;-78
2021/09/22 07:42:57;;;;;;;19.87;16.03;;;12.80;60.30;;;11.46;66.69;99121.56;5068353;28;20485;-78
2021/09/22 07:45:25;;;;;;;28.50;16.60;;;12.60;60.40;;;11.27;66.52;99102.22;5066347;28;20464;-76
2021/09/22 07:47:52;;;;;;;23.20;16.27;;;12.50;60.60;;;11.26;67.52;99127.59;5054950;28;20453;-77
2021/09/22 07:50:19;;;;;;;21.67;16.40;;;12.50;60.60;;;11.89;65.52;99145.03;5079085;28;20523;-78
2021/09/22 07:52:49;;;;;;;17.97;13.73;;;12.80;60.70;;;12.49;63.30;99141.91;5080533;28;21021;-77
2021/09/22 07:55:20;;;;;;;18.00;14.67;;;13.20;59.80;;;12.78;62.97;99142.69;5069753;28;20489;-76
2021/09/22 07:57:48;;;;;;;13.50;12.10;;;13.50;59.50;;;12.71;62.26;99136.38;5067191;28;20503;-77
2021/09/22 08:00:16;;;;;;;15.10;13.07;;;13.60;58.70;;;12.94;62.11;99129.78;5064959;28;20533;-78
2021/09/22 08:02:43;;;;;;;16.47;14.03;;;13.80;58.70;;;12.98;60.88;99133.75;5060918;28;20536;-77
2021/09/22 08:05:11;;;;;;;17.47;14.50;;;14.00;57.80;;;13.04;61.72;99139.22;5067713;28;20787;-77
2021/09/22 08:07:38;;;;;;;15.40;13.77;;;14.00;58.00;;;13.20;60.21;99134.44;5070254;28;20511;-76
2021/09/22 08:10:08;;;;;;;17.67;13.80;;;14.20;57.20;;;13.41;60.44;99138.03;5067017;28;20495;-76
2021/09/22 08:12:35;;;;;;;15.53;13.90;;;14.30;57.70;;;13.45;60.12;99134.72;5065961;28;20463;-77
2021/09/22 08:15:02;;;;;;;14.70;13.20;;;14.40;57.30;;;13.22;60.98;99137.78;5068844;28;20468;-74
2021/09/22 08:17:29;;;;;;;14.70;12.97;;;14.40;57.20;;;13.29;61.00;99146.81;5073003;28;20484;-78
2021/09/22 08:19:56;;;;;;;15.47;12.00;;;14.40;57.10;;;13.69;59.74;99150.63;5068345;28;20491;-77
2021/09/22 08:22:23;;;;;;;13.27;11.90;;;14.60;57.10;;;13.66;59.74;99149.19;5065983;28;20452;-75
2021/09/22 08:24:50;;;;;;;14.77;13.13;;;14.50;56.90;;;13.89;58.72;99150.63;5069104;28;20560;-77
2021/09/22 08:27:19;;;;;;;15.40;12.87;;;14.80;56.50;;;13.58;59.79;99150.22;5067577;28;20456;-73
2021/09/22 08:29:46;;;;;;;13.57;12.17;;;14.80;56.20;;;13.79;59.88;99151.06;5070400;28;20464;-72
2021/09/22 08:32:13;;;;;;;17.57;12.27;;;14.80;56.60;;;13.99;59.58;99152.91;5069842;28;20485;-73
2021/09/22 08:34:39;;;;;;;13.17;11.67;;;14.90;56.80;;;13.82;60.27;99150.63;5061300;28;20484;-70
2021/09/22 08:37:06;;;;;;;13.10;11.80;;;14.90;56.80;;;14.10;59.97;99159.59;5068072;28;20547;-70
2021/09/22 08:39:34;;;;;;;14.30;12.77;;;15.00;56.70;;;14.27;58.27;99151.84;5065621;28;20536;-71
2021/09/22 08:42:02;;;;;;;12.40;11.17;;;15.20;56.10;;;14.19;59.16;99154.81;5060090;28;20456;-78
2021/09/22 08:44:30;;;;;;;17.40;12.33;;;15.30;56.40;;;13.93;60.05;99153.78;5069480;28;20508;-79
2021/09/22 08:46:59;;;;;;;13.77;11.93;;;15.10;56.30;;;14.12;60.06;99163.78;5061563;28;20488;-80
2021/09/22 08:49:27;;;;;;;14.50;11.93;;;15.20;56.70;;;13.94;60.34;99155.44;5068641;28;20540;-77
2021/09/22 08:51:54;;;;;;;13.60;12.27;;;15.20;56.70;;;14.06;60.41;99148.34;5062896;28;20965;-78
2021/09/22 08:54:21;;;;;;;14.97;12.50;;;15.10;56.90;;;13.99;60.25;99148.34;5066505;28;20493;-79
2021/09/22 08:56:48;;;;;;;15.87;12.17;;;15.10;56.60;;;14.19;59.67;99150.19;5070544;28;20956;-79
2021/09/22 08:59:17;;;;;;;16.27;11.50;;;15.30;56.50;;;14.41;59.40;99156.22;5065467;28;20460;-79
2021/09/22 09:02:07;;;;;;;14.37;11.77;;;15.50;56.90;;;14.55;59.62;99148.84;5062859;28;20543;-79
2021/09/22 09:04:35;;;;;;;14.00;12.33;;;15.60;56.80;;;14.91;58.73;99146.66;5060945;28;20485;-77
2021/09/22 09:07:03;;;;;;;15.87;12.63;;;15.80;56.60;;;15.10;58.66;99152.25;5061712;28;21056;-78
2021/09/22 09:09:38;;;;;;;16.23;11.93;;;16.00;56.80;;;15.15;58.12;99161.41;5065737;28;20942;-77
2021/09/22 09:12:18;;;;;;;15.10;12.23;;;16.10;56.40;;;15.18;59.18;99149.25;5064491;28;20958;-78
2021/09/22 09:14:52;;;;;;;13.07;11.77;;;16.20;56.80;;;15.05;59.44;99143.88;5068905;28;20483;-79
2021/09/22 09:17:40;;;;;;;13.20;11.23;;;16.10;56.70;;;15.07;59.15;99158.09;5071469;28;20518;-78
2021/09/22 09:20:15;;;;;;;14.40;11.43;;;16.00;57.00;;;15.30;59.29;99149.38;5064742;28;20456;-79
2021/09/22 09:22:43;;;;;;;13.13;11.83;;;16.10;57.00;;;15.33;58.58;99148.13;5067866;28;20467;-78
2021/09/22 09:25:12;;;;;;;13.20;11.87;;;16.30;56.70;;;15.29;58.82;99145.84;5077414;28;20566;-78
2021/09/22 09:27:39;;;;;;;15.80;12.03;;;16.30;56.80;;;14.96;59.79;99146.00;5070803;28;20451;-79
2021/09/22 09:30:16;;;;;;;13.00;11.50;;;16.20;56.80;;;15.10;59.97;99146.78;5063191;28;21012;-79
2021/09/22 09:32:45;;;;;;;15.53;11.87;;;16.10;57.10;;;15.10;60.25;99141.34;5067737;28;20554;-78
2021/09/22 09:35:14;;;;;;;14.03;11.03;;;16.10;57.50;;;15.46;59.40;99139.00;5066255;28;21009;-71
2021/09/22 09:37:44;;;;;;;12.53;11.37;;;16.20;57.40;;;15.89;57.91;99142.91;5069307;28;20464;-76
2021/09/22 09:40:24;;;;;;;12.43;11.20;;;16.60;57.10;;;15.89;58.04;99143.75;5066463;28;20966;-76
2021/09/22 09:42:54;;;;;;;16.17;11.60;;;16.80;56.80;;;15.86;58.60;99146.88;5065935;28;20546;-69
2021/09/22 09:45:24;;;;;;;14.03;12.10;;;16.80;57.00;;;15.86;57.98;99147.75;5061596;28;20472;-76
2021/09/22 09:48:10;;;;;;;12.43;11.13;;;16.80;56.70;;;15.73;58.60;99142.41;5072113;28;20975;-79
2021/09/22 09:50:42;;;;;;;11.53;9.93;;;16.80;56.70;;;15.67;59.01;99144.13;5077756;28;20453;-79
2021/09/22 09:53:10;;;;;;;17.70;11.70;;;16.60;56.80;;;15.66;59.17;99142.44;5078774;28;20449;-76
2021/09/22 09:55:41;;;;;;;12.17;10.67;;;16.80;56.90;;;15.67;58.92;99140.53;5076031;28;20487;-78
2021/09/22 09:58:08;;;;;;;14.07;10.70;;;16.70;56.90;;;15.68;59.50;99148.50;5067999;28;20787;-74
2021/09/22 10:00:50;;;;;;;11.40;10.40;;;16.70;57.40;;;15.91;58.61;99149.00;5066760;28;20460;-75
2021/09/22 10:03:22;;;;;;;11.33;10.13;;;16.80;57.10;;;15.95;58.20;99148.31;5072300;28;21035;-74
2021/09/22 10:05:52;;;;;;;13.70;10.50;;;16.90;56.80;;;15.66;58.93;99119.81;5072101;28;20519;-76
2021/09/22 10:08:21;;;;;;;12.13;10.80;;;16.80;57.10;;;15.82;58.79;99135.59;5067486;28;20453;-75
2021/09/22 10:10:51;;;;;;;12.00;10.80;;;16.80;57.00;;;15.86;58.82;99134.13;5072132;28;20448;-75
2021/09/22 10:13:20;;;;;;;12.63;11.03;;;16.80;57.00;;;15.92;58.49;99134.31;5070404;28;20452;-75
2021/09/22 10:15:49;;;;;;;11.20;9.83;;;16.90;56.90;;;16.30;57.67;99122.38;5073400;28;20521;-75
2021/09/22 10:18:19;;;;;;;12.07;10.20;;;17.10;57.00;;;15.61;59.58;99123.19;5068818;28;20479;-74
2021/09/22 10:20:50;;;;;;;11.27;10.17;;;16.80;56.70;;;16.25;58.44;99119.50;5071400;28;20531;-77